Time;durP1;ratioP1;P1;durP2;ratioP2;P2;SDS_P1;SDS_P2;PMS_P1;PMS_P2;Temp;Humidity;BMP_temperature;BMP_pressure;BME280_temperature;BME280_humidity;BME280_pressure;Samples;Min_cycle;Max_cycle;Signal;HPM_P1;HPM_P2
2022/11/15 00:00:30;;;;;;;;;9.33;7.00;;;;;11.72;100.00;100341.41;6259583;22;46702;-86
2022/11/15 00:02:55;;;;;;;;;8.33;8.33;;;;;11.68;100.00;100339.63;6259246;22;45243;-85
2022/11/15 00:05:21;;;;;;;;;6.00;6.00;;;;;11.63;100.00;100333.38;6286908;22;45382;-85
2022/11/15 00:07:47;;;;;;;;;8.67;6.67;;;;;11.61;100.00;100340.47;6260319;22;45340;-85
2022/11/15 00:10:12;;;;;;;;;7.00;7.00;;;;;11.61;100.00;100341.41;6286427;22;46671;-85
2022/11/15 00:12:38;;;;;;;;;8.00;8.00;;;;;11.56;100.00;100334.25;6288091;22;45582;-85
2022/11/15 00:15:04;;;;;;;;;7.33;7.33;;;;;11.53;100.00;100327.16;6288080;22;44771;-85
2022/11/15 00:17:30;;;;;;;;;11.00;7.00;;;;;11.51;100.00;100328.03;6263288;22;44963;-84
2022/11/15 00:19:55;;;;;;;;;5.67;5.67;;;;;11.47;100.00;100320.91;6287297;22;48435;-87
2022/11/15 00:22:21;;;;;;;;;5.33;5.33;;;;;11.42;100.00;100315.56;6261263;22;45898;-85
2022/11/15 00:24:47;;;;;;;;;9.33;9.33;;;;;11.44;100.00;100320.91;6262945;22;45348;-86
2022/11/15 00:27:13;;;;;;;;;7.00;7.00;;;;;11.43;100.00;100322.66;6262424;22;45180;-85
2022/11/15 00:29:43;;;;;;;;;9.67;6.33;;;;;11.42;100.00;100318.22;6288695;22;46457;-85
2022/11/15 00:32:12;;;;;;;;;4.67;4.67;;;;;11.37;100.00;100306.66;6287755;22;45628;-86
2022/11/15 00:34:38;;;;;;;;;8.33;6.67;;;;;11.34;100.00;100304.00;6260739;22;45396;-86
2022/11/15 00:37:03;;;;;;;;;7.00;6.33;;;;;11.25;100.00;100288.91;6260525;22;45112;-86
2022/11/15 00:39:32;;;;;;;;;4.00;4.00;;;;;11.31;100.00;100310.22;6259892;22;46865;-86
2022/11/15 00:41:58;;;;;;;;;5.33;4.67;;;;;11.29;100.00;100308.41;6238085;22;45339;-86
2022/11/15 00:44:24;;;;;;;;;3.33;3.00;;;;;11.28;100.00;100302.19;6263168;22;44741;-85
2022/11/15 00:46:49;;;;;;;;;5.00;5.00;;;;;11.25;100.00;100299.53;6261351;22;45441;-85
2022/11/15 00:49:15;;;;;;;;;4.33;4.33;;;;;11.21;100.00;100301.28;6289098;22;45791;-84
2022/11/15 00:51:43;;;;;;;;;5.00;5.00;;;;;11.17;100.00;100290.63;6289519;22;45329;-84
2022/11/15 00:54:09;;;;;;;;;5.00;4.00;;;;;11.14;100.00;100285.28;6262452;22;45416;-85
2022/11/15 00:56:34;;;;;;;;;4.00;4.00;;;;;11.11;100.00;100283.50;6289900;22;45670;-85
2022/11/15 00:59:00;;;;;;;;;4.00;4.00;;;;;10.99;100.00;100273.69;6262825;22;47230;-84
2022/11/15 01:01:29;;;;;;;;;6.33;5.00;;;;;11.11;100.00;100295.91;6289863;22;45289;-85
2022/11/15 01:03:55;;;;;;;;;3.67;3.67;;;;;10.92;100.00;100252.38;6291450;22;45508;-85
2022/11/15 01:06:21;;;;;;;;;5.33;4.00;;;;;11.02;100.00;100284.34;6261843;22;45281;-85
2022/11/15 01:08:46;;;;;;;;;4.33;4.33;;;;;10.96;100.00;100262.13;6262417;22;47276;-84
2022/11/15 01:11:12;;;;;;;;;3.67;3.67;;;;;11.00;100.00;100275.44;6262286;22;45508;-86
2022/11/15 01:13:39;;;;;;;;;3.33;3.33;;;;;11.01;100.00;100273.72;6261764;22;45338;-85
2022/11/15 01:16:13;;;;;;;;;5.00;3.67;;;;;10.99;100.00;100273.69;6261386;22;45360;-85
2022/11/15 01:18:39;;;;;;;;;3.00;2.33;;;;;10.97;100.00;100263.94;6260133;22;47062;-85
2022/11/15 01:21:14;;;;;;;;;2.00;2.00;;;;;10.94;100.00;100261.25;6288301;22;45371;-85
2022/11/15 01:23:40;;;;;;;;;3.33;3.33;;;;;10.86;100.00;100247.00;6281155;22;45573;-85
2022/11/15 01:26:10;;;;;;;;;5.00;5.00;;;;;10.90;100.00;100259.44;6281827;22;45278;-86
2022/11/15 01:28:37;;;;;;;;;3.67;3.00;;;;;10.88;100.00;100251.44;6223170;22;46919;-86
2022/11/15 01:31:06;;;;;;;;;3.00;3.00;;;;;10.84;100.00;100252.31;6265956;22;45650;-86
2022/11/15 01:33:35;;;;;;;;;4.33;3.00;;;;;10.83;100.00;100253.22;6291729;22;45620;-85
2022/11/15 01:36:04;;;;;;;;;5.00;4.00;;;;;10.80;100.00;100251.41;6291742;22;45392;-85
2022/11/15 01:38:30;;;;;;;;;3.00;3.00;;;;;10.74;100.00;100237.19;6318939;22;45311;-86
2022/11/15 01:40:56;;;;;;;;;3.00;3.00;;;;;10.70;100.00;100230.09;6290447;22;45298;-85
2022/11/15 01:43:24;;;;;;;;;4.00;3.67;;;;;10.72;100.00;100230.97;6316744;22;45375;-85
2022/11/15 01:46:04;;;;;;;;;2.67;2.67;;;;;10.70;100.00;100232.75;6288624;22;45492;-84
2022/11/15 01:48:33;;;;;;;;;4.00;4.00;;;;;10.61;100.00;100221.19;6287753;22;46920;-85
2022/11/15 01:51:09;;;;;;;;;4.33;3.00;;;;;10.56;100.00;100212.31;6315258;22;45577;-85
2022/11/15 01:53:38;;;;;;;;;5.67;3.67;;;;;10.56;100.00;100216.72;6263578;22;45358;-85
2022/11/15 01:56:16;;;;;;;;;4.00;4.00;;;;;10.50;100.00;100206.94;6289342;22;44788;-85
2022/11/15 01:58:44;;;;;;;;;7.00;4.00;;;;;10.49;100.00;100213.13;6288485;22;46867;-86
2022/11/15 02:01:12;;;;;;;;;4.00;3.33;;;;;10.42;100.00;100203.34;6288740;22;45366;-85
2022/11/15 02:03:46;;;;;;;;;3.00;3.00;;;;;10.41;100.00;100205.09;6290160;22;45452;-86
2022/11/15 02:06:14;;;;;;;;;2.00;2.00;;;;;10.34;100.00;100195.34;6290438;22;45347;-86
2022/11/15 02:08:39;;;;;;;;;2.00;2.00;;;;;10.34;100.00;100199.75;6317669;22;45725;-86
2022/11/15 02:11:08;;;;;;;;;3.00;3.00;;;;;10.31;100.00;100197.06;6290125;22;45381;-86
2022/11/15 02:13:35;;;;;;;;;2.67;2.67;;;;;10.27;100.00;100189.94;6292495;22;45713;-86
2022/11/15 02:16:09;;;;;;;;;4.00;3.00;;;;;10.26;100.00;100189.06;6292176;22;45607;-86
2022/11/15 02:18:41;;;;;;;;;3.67;2.67;;;;;10.24;100.00;100180.19;6290653;22;47083;-86
2022/11/15 02:21:28;;;;;;;;;2.00;2.00;;;;;10.24;100.00;100184.56;6319210;22;45336;-86
2022/11/15 02:24:15;;;;;;;;;3.00;3.00;;;;;10.19;100.00;100173.94;6320204;22;45747;-85
2022/11/15 02:27:02;;;;;;;;;4.00;3.00;;;;;10.14;100.00;100171.25;6290145;22;45438;-85
2022/11/15 02:29:55;;;;;;;;;3.00;3.00;;;;;10.13;100.00;100165.91;6288863;22;47069;-85
2022/11/15 02:32:27;;;;;;;;;4.33;3.67;;;;;10.12;100.00;100159.72;6267711;22;45462;-85
2022/11/15 02:35:01;;;;;;;;;4.00;2.67;;;;;10.12;100.00;100157.06;6284263;22;45340;-85
2022/11/15 02:37:47;;;;;;;;;1.67;1.67;;;;;10.10;100.00;100158.81;6287389;22;45373;-85
2022/11/15 02:40:45;;;;;;;;;4.00;4.00;;;;;10.07;100.00;100158.78;6260023;22;47010;-85
2022/11/15 02:46:15;;;;;;;;;4.00;3.00;;;;;9.91;100.00;100140.97;6289415;22;45397;-86
2022/11/15 02:48:43;;;;;;;;;4.00;4.00;;;;;9.94;100.00;100151.63;6236235;22;45418;-86
2022/11/15 02:51:10;;;;;;;;;3.67;3.67;;;;;9.87;100.00;100120.59;6259504;22;45351;-86
2022/11/15 02:53:35;;;;;;;;;4.00;4.00;;;;;9.88;100.00;100135.66;6285375;22;45322;-86
2022/11/15 02:56:01;;;;;;;;;2.00;2.00;;;;;9.84;100.00;100120.53;6287544;22;45340;-86
2022/11/15 02:58:32;;;;;;;;;3.00;3.00;;;;;9.82;100.00;100123.22;6287781;22;45289;-86
2022/11/15 03:01:24;;;;;;;;;3.67;2.33;;;;;9.68;100.00;100101.88;6287827;22;45360;-85
2022/11/15 03:04:05;;;;;;;;;3.00;2.67;;;;;9.79;100.00;100110.78;6259664;22;45470;-86
2022/11/15 03:06:49;;;;;;;;;4.00;3.00;;;;;9.78;100.00;100105.47;6286317;22;45254;-85
2022/11/15 03:09:33;;;;;;;;;4.00;3.00;;;;;9.77;100.00;100096.59;6262542;22;45372;-86
2022/11/15 03:12:15;;;;;;;;;4.00;3.00;;;;;9.79;100.00;100096.63;6258578;22;46895;-85
2022/11/15 03:14:58;;;;;;;;;2.00;2.00;;;;;9.75;100.00;100093.03;6284734;22;45419;-85
2022/11/15 03:17:33;;;;;;;;;5.00;3.33;;;;;9.72;100.00;100087.72;6284452;22;44768;-85
2022/11/15 03:20:03;;;;;;;;;4.00;4.00;;;;;9.71;100.00;100079.75;6259198;22;45256;-85
2022/11/15 03:22:35;;;;;;;;;3.33;3.00;;;;;9.75;100.00;100086.84;6258105;22;47130;-85
2022/11/15 03:25:05;;;;;;;;;5.00;5.00;;;;;9.73;100.00;100089.50;6256821;22;45970;-85
2022/11/15 03:27:38;;;;;;;;;7.67;5.67;;;;;9.69;100.00;100082.38;6285501;22;45748;-85
2022/11/15 03:30:08;;;;;;;;;5.67;5.67;;;;;9.66;100.00;100078.84;6257253;22;45400;-86
2022/11/15 03:32:55;;;;;;;;;4.00;4.00;;;;;9.67;100.00;100078.84;6281758;22;46688;-85
2022/11/15 03:35:23;;;;;;;;;3.00;3.00;;;;;9.64;100.00;100073.53;6289544;22;45298;-85
2022/11/15 03:38:10;;;;;;;;;7.67;4.00;;;;;9.66;100.00;100068.22;6290812;22;45470;-85
2022/11/15 03:40:55;;;;;;;;;4.00;4.00;;;;;9.62;100.00;100075.28;6290732;22;45561;-85
2022/11/15 03:43:41;;;;;;;;;6.00;6.00;;;;;9.64;100.00;100077.94;6289428;22;45661;-85
2022/11/15 03:46:13;;;;;;;;;8.00;5.00;;;;;9.61;100.00;100074.41;6291584;22;45382;-85
2022/11/15 03:48:51;;;;;;;;;6.00;3.67;;;;;9.60;100.00;100071.72;6291208;22;45340;-85
2022/11/15 03:51:18;;;;;;;;;3.67;2.00;;;;;9.61;100.00;100078.78;6264278;22;45712;-86
2022/11/15 03:53:43;;;;;;;;;3.33;3.33;;;;;9.54;100.00;100059.28;6289925;22;47997;-86
2022/11/15 03:56:09;;;;;;;;;8.00;5.67;;;;;9.55;100.00;100068.13;6290500;22;45829;-86
2022/11/15 03:58:34;;;;;;;;;1.00;1.00;;;;;9.54;100.00;100061.06;6289326;22;44714;-85
2022/11/15 04:01:00;;;;;;;;;4.33;4.33;;;;;9.57;100.00;100061.06;6316556;22;45558;-85
2022/11/15 04:03:26;;;;;;;;;3.00;3.00;;;;;9.57;100.00;100058.41;6317374;22;46232;-85
2022/11/15 04:05:52;;;;;;;;;2.67;2.33;;;;;9.54;100.00;100050.44;6291242;22;45368;-86
2022/11/15 04:08:17;;;;;;;;;4.00;4.00;;;;;9.56;100.00;100049.56;6291673;22;45277;-86
2022/11/15 04:10:43;;;;;;;;;3.00;3.00;;;;;9.57;100.00;100050.44;6292445;22;45258;-86
2022/11/15 04:13:08;;;;;;;;;5.67;4.00;;;;;9.52;100.00;100042.47;6291763;22;47047;-85
2022/11/15 04:15:34;;;;;;;;;4.00;4.00;;;;;9.57;100.00;100050.44;6291914;22;45365;-85
2022/11/15 04:18:00;;;;;;;;;3.67;3.67;;;;;9.53;100.00;100053.97;6320341;22;45699;-85
2022/11/15 04:26:05;;;;;;;;;4.00;3.00;;;;;9.54;100.00;100058.41;6319028;22;45444;-85
2022/11/15 04:28:31;;;;;;;;;3.00;3.00;;;;;9.52;100.00;100041.56;6292640;22;45437;-86
2022/11/15 04:30:56;;;;;;;;;5.00;5.00;;;;;9.49;100.00;100044.19;6290637;22;44825;-85
2022/11/15 04:34:01;;;;;;;;;4.33;4.33;;;;;9.53;100.00;100048.66;6260515;22;46608;-85
2022/11/15 04:39:10;;;;;;;;;7.00;5.67;;;;;9.45;100.00;100022.03;6288900;22;45365;-86
2022/11/15 04:41:36;;;;;;;;;3.67;2.67;;;;;9.41;100.00;100015.84;6288854;22;45360;-85
2022/11/15 04:44:01;;;;;;;;;4.00;4.00;;;;;9.38;100.00;100017.59;6261704;22;46884;-85
2022/11/15 04:46:27;;;;;;;;;6.33;4.33;;;;;9.43;100.00;100021.16;6288389;22;45286;-85
2022/11/15 04:48:54;;;;;;;;;4.00;4.00;;;;;9.39;100.00;100016.69;6259046;22;45315;-85
2022/11/15 04:51:20;;;;;;;;;5.67;5.00;;;;;9.27;100.00;99990.06;6260571;22;45257;-85
2022/11/15 04:53:45;;;;;;;;;3.33;3.00;;;;;9.28;100.00;99997.16;6284966;22;46776;-85
2022/11/15 04:56:14;;;;;;;;;4.00;4.00;;;;;9.33;100.00;100003.38;6259335;22;45361;-86
2022/11/15 04:58:41;;;;;;;;;6.00;5.33;;;;;9.24;100.00;99988.28;6259982;22;44787;-86
2022/11/15 05:01:14;;;;;;;;;6.33;4.00;;;;;9.18;100.00;99983.81;6286149;22;45259;-86
2022/11/15 05:06:24;;;;;;;;;4.00;4.00;;;;;8.97;100.00;99947.44;6286699;22;45405;-86
2022/11/15 05:08:52;;;;;;;;;7.00;5.33;;;;;9.17;100.00;99986.47;6288289;22;45697;-86
2022/11/15 05:11:22;;;;;;;;;9.00;4.00;;;;;9.23;100.00;100002.44;6234553;22;45448;-86
2022/11/15 05:13:47;;;;;;;;;3.00;3.00;;;;;9.22;100.00;99992.69;6261855;22;45450;-86
2022/11/15 05:16:13;;;;;;;;;5.67;3.33;;;;;9.16;100.00;99977.63;6288444;22;44790;-86
2022/11/15 05:18:41;;;;;;;;;6.00;6.00;;;;;9.21;100.00;99985.63;6235967;22;45323;-86
2022/11/15 05:21:11;;;;;;;;;4.67;4.67;;;;;9.16;100.00;99982.94;6261784;22;45281;-86
2022/11/15 05:23:37;;;;;;;;;6.00;6.00;;;;;9.23;100.00;99997.16;6260003;22;46950;-86
2022/11/15 05:26:04;;;;;;;;;4.00;4.00;;;;;9.25;100.00;99992.75;6288515;22;45255;-86
2022/11/15 05:28:32;;;;;;;;;4.00;4.00;;;;;9.24;100.00;99988.28;6289162;22;45763;-85
2022/11/15 05:31:06;;;;;;;;;7.00;7.00;;;;;9.25;100.00;99987.44;6287832;22;45243;-85
2022/11/15 05:33:33;;;;;;;;;5.00;5.00;;;;;9.31;100.00;99998.09;6289055;22;47918;-85
2022/11/15 05:36:35;;;;;;;;;4.33;4.33;;;;;9.37;100.00;99995.47;6292132;22;45305;-85
2022/11/15 05:39:02;;;;;;;;;6.67;4.00;;;;;9.39;100.00;99998.13;6263763;22;45356;-86
2022/11/15 05:41:35;;;;;;;;;5.33;5.33;;;;;9.43;100.00;100004.34;6264838;22;45279;-85
2022/11/15 05:44:03;;;;;;;;;7.00;5.67;;;;;9.39;100.00;99991.06;6288815;22;46850;-85
2022/11/15 05:46:29;;;;;;;;;4.00;3.33;;;;;9.44;100.00;99987.56;6263540;22;45290;-85
2022/11/15 05:48:56;;;;;;;;;5.33;5.33;;;;;9.47;100.00;99991.09;6263510;22;45306;-85
2022/11/15 05:51:22;;;;;;;;;5.33;5.33;;;;;9.43;100.00;99972.50;6288457;22;45693;-85
2022/11/15 05:53:49;;;;;;;;;5.00;4.33;;;;;9.48;100.00;99976.09;6260098;22;46847;-84
2022/11/15 05:56:15;;;;;;;;;5.33;5.33;;;;;9.43;100.00;99965.41;6261197;22;45244;-85
2022/11/15 05:58:42;;;;;;;;;8.00;7.00;;;;;9.45;100.00;99957.47;6261069;22;45341;-85
2022/11/15 06:01:08;;;;;;;;;7.00;4.00;;;;;9.45;100.00;99957.47;6261419;22;45304;-85
2022/11/15 06:03:33;;;;;;;;;5.33;4.00;;;;;9.44;100.00;99959.25;6259873;22;45380;-85
2022/11/15 06:05:59;;;;;;;;;8.00;6.33;;;;;9.52;100.00;99956.63;6260863;22;45312;-85
2022/11/15 06:08:26;;;;;;;;;10.33;6.00;;;;;9.51;100.00;99953.06;6262096;22;45233;-85
2022/11/15 06:10:52;;;;;;;;;7.00;4.33;;;;;9.54;100.00;99954.88;6262568;22;45385;-84
2022/11/15 06:13:17;;;;;;;;;4.33;4.33;;;;;9.52;100.00;99941.59;6262090;22;46611;-84
2022/11/15 06:15:45;;;;;;;;;8.00;6.33;;;;;9.58;100.00;99936.31;6261210;22;45843;-86
2022/11/15 06:18:11;;;;;;;;;8.00;7.00;;;;;9.53;100.00;99932.75;6263072;22;45318;-85
2022/11/15 06:20:40;;;;;;;;;8.67;8.67;;;;;9.62;100.00;99934.56;6262154;22;44867;-86
2022/11/15 06:23:05;;;;;;;;;6.00;6.00;;;;;9.60;100.00;99917.75;6260932;22;47407;-86
2022/11/15 06:25:31;;;;;;;;;9.00;9.00;;;;;9.60;100.00;99923.06;6288614;22;45421;-84
2022/11/15 06:27:58;;;;;;;;;10.67;8.67;;;;;9.65;100.00;99920.41;6262135;22;45329;-86
2022/11/15 06:30:25;;;;;;;;;7.33;6.00;;;;;9.62;100.00;99905.38;6260798;22;45290;-85
2022/11/15 06:32:51;;;;;;;;;9.67;9.67;;;;;9.60;100.00;99907.13;6262245;22;46863;-85
2022/11/15 06:35:18;;;;;;;;;9.00;9.00;;;;;9.65;100.00;99915.97;6261302;22;45284;-86
2022/11/15 06:37:43;;;;;;;;;7.00;7.00;;;;;9.62;100.00;99905.38;6262170;22;45276;-85
2022/11/15 06:40:16;;;;;;;;;10.00;9.33;;;;;9.65;100.00;99897.41;6289681;22;45508;-86
2022/11/15 06:42:42;;;;;;;;;11.33;8.67;;;;;9.64;100.00;99898.28;6260553;22;46709;-86
2022/11/15 06:45:09;;;;;;;;;10.00;8.00;;;;;9.63;100.00;99895.63;6288315;22;45286;-85
2022/11/15 06:47:34;;;;;;;;;10.00;9.67;;;;;9.65;100.00;99884.13;6276487;22;45328;-85
2022/11/15 06:50:01;;;;;;;;;9.00;9.00;;;;;9.53;100.00;99868.16;6289236;22;45076;-85
2022/11/15 06:52:32;;;;;;;;;11.33;9.00;;;;;9.60;100.00;99872.63;6261340;22;46616;-85
2022/11/15 06:54:59;;;;;;;;;10.00;10.00;;;;;9.63;100.00;99869.06;6287082;22;45255;-86
2022/11/15 06:57:25;;;;;;;;;8.33;8.33;;;;;9.55;100.00;99862.00;6262297;22;45566;-86
2022/11/15 06:59:50;;;;;;;;;13.67;9.33;;;;;9.63;100.00;99862.00;6262915;22;45265;-85
2022/11/15 07:02:16;;;;;;;;;9.00;9.00;;;;;9.60;100.00;99852.25;6288915;22;45225;-85
2022/11/15 07:04:41;;;;;;;;;10.00;10.00;;;;;9.63;100.00;99862.00;6289336;22;45441;-85
2022/11/15 07:07:06;;;;;;;;;10.33;9.00;;;;;9.58;100.00;99853.13;6262430;22;45358;-85
2022/11/15 07:09:33;;;;;;;;;13.00;13.00;;;;;9.63;100.00;99851.38;6288684;22;45352;-85
2022/11/15 07:11:59;;;;;;;;;9.00;9.00;;;;;9.67;100.00;99865.56;6262429;22;48369;-85
2022/11/15 07:14:24;;;;;;;;;8.67;8.67;;;;;9.71;100.00;99875.31;6260425;22;46061;-85
2022/11/15 07:16:50;;;;;;;;;9.00;8.33;;;;;9.71;100.00;99878.84;6262292;22;45222;-86
2022/11/15 07:19:17;;;;;;;;;9.00;8.33;;;;;9.73;100.00;99871.75;6289356;22;45489;-85
2022/11/15 07:29:04;;;;;;;;;7.33;6.33;;;;;9.87;100.00;99868.28;6290714;22;45272;-84
2022/11/15 07:31:47;;;;;;;;;9.67;8.33;;;;;9.85;100.00;99854.97;6266730;22;44921;-85
2022/11/15 07:34:15;;;;;;;;;12.33;9.00;;;;;9.85;100.00;99854.09;6294721;22;47040;-86
2022/11/15 07:36:55;;;;;;;;;8.00;8.00;;;;;9.86;100.00;99835.53;6321770;22;45396;-86
2022/11/15 07:39:27;;;;;;;;;13.67;9.67;;;;;9.89;100.00;99842.59;6294852;22;45043;-86
2022/11/15 07:44:49;;;;;;;;;10.00;10.00;;;;;9.82;100.00;99808.06;6324178;22;45788;-86
2022/11/15 07:47:15;;;;;;;;;10.00;10.00;;;;;9.90;100.00;99807.22;6323767;22;45471;-86
2022/11/15 07:49:40;;;;;;;;;8.67;8.67;;;;;9.77;100.00;99788.56;6293797;22;45538;-87
2022/11/15 07:52:07;;;;;;;;;7.33;7.33;;;;;10.01;100.00;99818.72;6293354;22;45319;-87
2022/11/15 07:54:33;;;;;;;;;11.67;10.00;;;;;9.94;100.00;99791.28;6292662;22;46628;-86
2022/11/15 07:57:06;;;;;;;;;9.00;8.00;;;;;9.98;100.00;99793.06;6291811;22;45202;-87
2022/11/15 07:59:35;;;;;;;;;11.00;8.00;;;;;10.10;100.00;99802.81;6293942;22;45303;-84
2022/11/15 08:02:01;;;;;;;;;6.67;5.33;;;;;10.01;100.00;99778.88;6293468;22;45436;-87
2022/11/15 08:04:37;;;;;;;;;9.00;9.00;;;;;10.16;100.00;99799.25;6293699;22;46483;-86
2022/11/15 08:14:39;;;;;;;;;8.00;7.00;;;;;10.27;100.00;99810.78;6324134;22;44742;-88
2022/11/15 08:17:14;;;;;;;;;6.00;4.00;;;;;10.19;100.00;99794.81;6292988;22;47063;-86
2022/11/15 08:22:54;;;;;;;;;8.33;7.33;;;;;10.40;100.00;99817.91;6322134;22;44819;-86
2022/11/15 08:26:00;;;;;;;;;8.33;8.00;;;;;10.50;100.00;99821.47;6293292;22;45681;-85
2022/11/15 08:31:04;;;;;;;;;7.33;7.33;;;;;10.44;100.00;99780.69;6274293;22;46647;-87
2022/11/15 08:33:30;;;;;;;;;7.33;7.33;;;;;10.52;100.00;99774.50;6293930;22;45312;-87
2022/11/15 08:35:57;;;;;;;;;8.67;8.67;;;;;10.57;100.00;99767.38;6264659;22;45181;-85
2022/11/15 08:38:33;;;;;;;;;7.00;7.00;;;;;10.73;100.00;99783.31;6261903;22;46989;-86
2022/11/15 08:44:26;;;;;;;;;9.33;7.00;;;;;10.56;100.00;99736.38;6291460;22;45382;-86
2022/11/15 08:52:33;;;;;;;;;8.67;5.67;;;;;11.06;100.00;99776.13;6236491;22;44784;-87
2022/11/15 08:55:11;;;;;;;;;3.00;3.00;;;;;10.79;100.00;99709.72;6209770;22;45372;-88
2022/11/15 08:57:58;;;;;;;;;6.67;6.67;;;;;11.17;100.00;99764.56;6237046;22;45540;-88
2022/11/15 09:05:43;;;;;;;;;6.00;6.00;;;;;11.01;100.00;99699.88;6239774;22;45601;-88
2022/11/15 09:08:08;;;;;;;;;7.00;6.33;;;;;11.23;100.00;99722.81;6205301;22;45550;-87
2022/11/15 09:10:36;;;;;;;;;6.00;6.00;;;;;11.26;100.00;99718.38;6229653;22;45142;-88
2022/11/15 09:13:01;;;;;;;;;5.00;5.00;;;;;11.30;100.00;99725.44;6202715;22;45416;-88
2022/11/15 09:15:31;;;;;;;;;7.00;7.00;;;;;11.45;100.00;99742.22;6229148;22;44787;-88
2022/11/15 09:18:19;;;;;;;;;6.00;5.00;;;;;11.31;100.00;99716.59;6227777;22;44746;-88
2022/11/15 09:20:58;;;;;;;;;10.00;5.67;;;;;11.56;100.00;99735.06;6206606;22;45057;-87
2022/11/15 09:24:22;;;;;;;;;5.00;5.00;;;;;11.54;100.00;99727.09;6230894;22;46885;-88
2022/11/15 09:26:59;;;;;;;;;8.00;7.00;;;;;11.66;100.00;99736.78;6268485;22;44669;-88
2022/11/15 09:29:39;;;;;;;;;7.00;5.00;;;;;11.72;100.00;99735.88;6257191;22;45242;-88
2022/11/15 09:32:10;;;;;;;;;8.00;8.00;;;;;11.74;100.00;99734.94;6231936;22;46735;-87
2022/11/15 09:38:07;;;;;;;;;5.00;3.33;;;;;11.74;100.00;99718.97;6261568;22;45266;-90
2022/11/15 09:44:14;;;;;;;;;5.67;5.67;;;;;11.65;100.00;99687.06;6234620;22;46060;-88
2022/11/15 09:47:36;;;;;;;;;5.67;5.67;;;;;11.99;100.00;99718.81;6262019;22;44711;-90
2022/11/15 09:50:30;;;;;;;;;10.00;7.33;;;;;12.04;100.00;99732.09;6258956;22;45381;-90
2022/11/15 09:53:01;;;;;;;;;5.33;5.33;;;;;11.88;100.00;99689.56;6239812;22;45463;-87
2022/11/15 09:59:28;;;;;;;;;4.67;4.67;;;;;12.18;100.00;99708.91;6266497;22;44574;-88
2022/11/15 10:02:52;;;;;;;;;4.67;4.33;;;;;12.27;100.00;99723.91;6135304;23;45310;-88
2022/11/15 11:00:59;;;;;;;;;9.67;6.00;;;;;12.29;100.00;99595.03;6255050;22;46889;-86
2022/11/15 11:03:39;;;;;;;;;9.67;5.67;;;;;12.09;100.00;99554.38;6213122;22;45661;-87
2022/11/15 11:06:19;;;;;;;;;4.00;4.00;;;;;12.00;100.00;99539.41;6264934;22;45552;-86
2022/11/15 11:09:21;;;;;;;;;11.67;9.00;;;;;11.99;100.00;99529.63;6267394;22;45311;-87
2022/11/15 11:11:50;;;;;;;;;11.00;9.33;;;;;11.97;100.00;99534.09;6263912;22;45823;-87
2022/11/15 11:14:36;;;;;;;;;10.67;10.00;;;;;12.01;100.00;99527.81;6266208;22;44683;-87
2022/11/15 11:20:54;;;;;;;;;9.00;9.00;;;;;12.30;100.00;99570.16;6294428;22;45214;-86
2022/11/15 11:24:12;;;;;;;;;6.33;5.00;;;;;12.33;100.00;99570.09;6266354;22;45132;-87
2022/11/15 11:33:48;;;;;;;;;8.00;8.00;;;;;12.42;100.00;99563.75;6225263;22;46706;-85
2022/11/15 11:37:00;;;;;;;;;9.33;9.33;;;;;12.53;100.00;99560.97;6263557;22;45109;-86
2022/11/15 11:39:33;;;;;;;;;10.33;9.00;;;;;12.56;100.00;99545.81;6233466;22;45253;-86
2022/11/15 11:42:13;;;;;;;;;7.00;7.00;;;;;12.61;100.00;99543.09;6234476;22;45390;-85
2022/11/15 11:45:07;;;;;;;;;9.00;4.67;;;;;12.71;100.00;99543.84;6234470;22;45580;-85
2022/11/15 11:47:40;;;;;;;;;13.00;13.00;;;;;12.52;100.00;99498.75;6234974;22;46974;-87
2022/11/15 11:57:14;;;;;;;;;11.00;11.00;;;;;12.78;100.00;99513.50;6264425;22;44811;-86
2022/11/15 12:00:17;;;;;;;;;9.33;7.00;;;;;12.81;100.00;99518.81;6260646;22;45879;-85
2022/11/15 12:03:27;;;;;;;;;25.33;25.33;;;;;12.84;100.00;99513.41;6239244;22;44837;-85
2022/11/15 12:06:42;;;;;;;;;34.67;29.33;;;;;12.85;100.00;99508.97;6206607;22;45180;-87
2022/11/15 12:15:18;;;;;;;;;12.00;11.00;;;;;12.83;100.00;99487.63;6181691;22;45424;-84
2022/11/15 12:25:45;;;;;;;;;12.00;12.00;;;;;12.67;100.00;99446.09;6270126;22;45160;-87
2022/11/15 12:28:48;;;;;;;;;11.00;10.00;;;;;12.95;100.00;99479.44;6292414;22;44799;-86
2022/11/15 12:31:39;;;;;;;;;11.00;8.33;;;;;13.01;100.00;99466.00;6266096;22;45641;-86
2022/11/15 12:47:53;;;;;;;;;6.00;6.00;;;;;13.32;100.00;99430.78;6232687;22;45340;-86
2022/11/15 12:50:55;;;;;;;;;5.00;5.00;;;;;13.34;100.00;99410.28;6139197;23;45396;-84
2022/11/15 12:53:32;;;;;;;;;6.67;6.00;;;;;13.42;100.00;99423.50;6114893;23;44910;-85
2022/11/15 13:00:34;;;;;;;;;8.00;8.00;;;;;13.36;100.00;99413.78;6110243;23;45415;-85
2022/11/15 13:03:23;;;;;;;;;6.00;5.33;;;;;13.19;100.00;99376.72;6052816;23;44820;-84
2022/11/15 13:06:09;;;;;;;;;6.00;6.00;;;;;13.12;100.00;99364.38;6031426;23;45314;-82
2022/11/15 13:08:56;;;;;;;;;7.33;7.33;;;;;13.34;100.00;99386.25;6050686;23;45538;-85
2022/11/15 13:11:50;;;;;;;;;7.00;6.67;;;;;13.36;100.00;99387.09;6022783;23;46875;-84
2022/11/15 13:14:44;;;;;;;;;8.00;8.00;;;;;13.39;100.00;99379.03;6023871;23;45434;-85
2022/11/15 13:17:39;;;;;;;;;6.00;6.00;;;;;13.46;100.00;99366.44;5999712;23;45361;-85
2022/11/15 13:20:32;;;;;;;;;8.67;8.67;;;;;13.48;100.00;99364.63;6025974;23;45541;-86
2022/11/15 13:23:12;;;;;;;;;6.00;6.00;;;;;13.49;100.00;99368.16;6043707;23;47094;-84
2022/11/15 13:26:16;;;;;;;;;6.00;6.00;;;;;13.34;100.00;99338.19;6052899;23;45446;-85
2022/11/15 13:31:36;;;;;;;;;5.33;4.00;;;;;13.56;100.00;99348.44;6217829;22;44921;-86
2022/11/15 13:34:33;;;;;;;;;4.25;4.25;;;;;13.68;100.00;99369.56;6262203;22;45547;-85
2022/11/15 13:37:33;;;;;;;;;7.00;6.00;;;;;13.78;100.00;99373.78;6248620;22;45290;-84
2022/11/15 13:43:39;;;;;;;;;6.00;5.67;;;;;13.90;100.00;99379.81;6093754;23;45447;-85
2022/11/15 13:46:45;;;;;;;;;;;;;;;;;;;;;
2022/11/15 13:49:18;;;;;;;;;6.00;5.00;;;;;13.72;100.00;99331.19;6109472;23;72131;-86
2022/11/15 13:52:21;;;;;;;;;;;;;;;;;;;;;
2022/11/15 13:55:17;;;;;;;;;5.00;4.33;;;;;13.96;100.00;99359.16;6021144;23;65305;-85
2022/11/15 13:58:14;;;;;;;;;7.67;6.00;;;;;13.91;100.00;99344.13;6022345;23;46767;-85
2022/11/15 14:00:48;;;;;;;;;5.33;5.33;;;;;13.73;100.00;99322.22;6109550;23;44775;-86
2022/11/15 14:03:51;;;;;;;;;;;;;;;;;;;;;
2022/11/15 14:06:27;;;;;;;;;2.67;2.67;;;;;13.70;100.00;99341.03;6042773;23;64966;-86
2022/11/15 14:09:10;;;;;;;;;5.00;5.00;;;;;13.63;100.00;99336.69;6114271;23;46285;-84
2022/11/15 14:11:58;;;;;;;;;6.33;6.33;;;;;13.35;100.00;99273.19;6144034;23;45442;-88
2022/11/15 14:14:32;;;;;;;;;6.00;6.00;;;;;13.48;100.00;99291.63;6167571;23;45489;-85
2022/11/15 14:20:36;;;;;;;;;6.00;5.67;;;;;13.54;100.00;99295.03;6141725;23;45237;-86
2022/11/15 14:23:58;;;;;;;;;;;;;;;;;;;;;
2022/11/15 14:27:34;;;;;;;;;7.67;6.67;;;;;13.19;100.00;99237.03;6250381;22;67692;-86
2022/11/15 14:30:04;;;;;;;;;6.00;5.00;;;;;13.26;100.00;99254.66;6247432;22;45110;-86
2022/11/15 14:33:00;;;;;;;;;6.00;5.33;;;;;13.21;100.00;99248.56;6253634;22;47737;-84
2022/11/15 14:35:57;;;;;;;;;4.33;4.33;;;;;13.25;100.00;99252.91;6243765;22;44662;-86
2022/11/15 14:39:06;;;;;;;;;6.00;6.00;;;;;13.08;100.00;99233.69;6187894;22;45786;-85
2022/11/15 14:41:44;;;;;;;;;6.67;5.00;;;;;13.24;100.00;99256.47;6266267;22;45358;-85
2022/11/15 14:44:23;;;;;;;;;7.00;7.00;;;;;13.17;100.00;99244.19;6242023;22;45399;-85
2022/11/15 14:47:00;;;;;;;;;4.33;4.33;;;;;13.31;100.00;99265.25;6298766;22;44823;-86
2022/11/15 14:49:52;;;;;;;;;8.00;6.50;;;;;13.20;100.00;99244.09;6269993;22;44885;-85
2022/11/15 14:52:39;;;;;;;;;4.33;4.33;;;;;13.35;100.00;99261.63;6270539;22;44792;-86
2022/11/15 14:55:35;;;;;;;;;9.00;9.00;;;;;13.36;100.00;99269.59;6271051;22;46755;-86
2022/11/15 14:58:07;;;;;;;;;6.67;6.67;;;;;13.40;100.00;99263.28;6270327;22;44786;-86
2022/11/15 15:00:40;;;;;;;;;10.67;9.00;;;;;13.25;100.00;99228.88;6242560;22;45292;-86
2022/11/15 15:08:22;;;;;;;;;10.00;10.00;;;;;13.31;100.00;99226.13;6238783;22;45199;-85